sensor_id;sensor_type;location;lat;lon;timestamp;P1;durP1;ratioP1;P2;durP2;ratioP2
49296;SDS011;35163;48.878;18.040;2022-10-04T00:01:51;12.70;;;3.35;;
49296;SDS011;35163;48.878;18.040;2022-10-04T00:09:59;12.20;;;4.10;;
49296;SDS011;35163;48.878;18.040;2022-10-04T00:12:33;13.60;;;3.75;;
49296;SDS011;35163;48.878;18.040;2022-10-04T00:15:04;10.60;;;3.33;;
49296;SDS011;35163;48.878;18.040;2022-10-04T00:17:42;12.48;;;4.03;;
49296;SDS011;35163;48.878;18.040;2022-10-04T00:25:51;8.23;;;3.42;;
49296;SDS011;35163;48.878;18.040;2022-10-04T00:41:36;11.13;;;3.95;;
49296;SDS011;35163;48.878;18.040;2022-10-04T00:50:07;11.43;;;3.88;;
49296;SDS011;35163;48.878;18.040;2022-10-04T00:52:44;13.25;;;4.13;;
49296;SDS011;35163;48.878;18.040;2022-10-04T00:55:22;8.10;;;3.63;;
49296;SDS011;35163;48.878;18.040;2022-10-04T00:57:58;10.40;;;3.60;;
49296;SDS011;35163;48.878;18.040;2022-10-04T01:00:28;14.45;;;4.20;;
49296;SDS011;35163;48.878;18.040;2022-10-04T01:03:09;13.68;;;4.63;;
49296;SDS011;35163;48.878;18.040;2022-10-04T01:05:40;12.18;;;3.97;;
49296;SDS011;35163;48.878;18.040;2022-10-04T01:08:30;12.70;;;4.72;;
49296;SDS011;35163;48.878;18.040;2022-10-04T01:11:02;14.55;;;4.50;;
49296;SDS011;35163;48.878;18.040;2022-10-04T01:13:44;12.52;;;4.55;;
49296;SDS011;35163;48.878;18.040;2022-10-04T01:18:45;9.82;;;4.47;;
49296;SDS011;35163;48.878;18.040;2022-10-04T01:23:49;13.90;;;5.22;;
49296;SDS011;35163;48.878;18.040;2022-10-04T01:28:58;14.10;;;4.47;;
49296;SDS011;35163;48.878;18.040;2022-10-04T01:31:28;9.85;;;4.20;;
49296;SDS011;35163;48.878;18.040;2022-10-04T01:33:56;12.30;;;4.30;;
49296;SDS011;35163;48.878;18.040;2022-10-04T01:36:25;10.57;;;4.00;;
49296;SDS011;35163;48.878;18.040;2022-10-04T01:38:53;12.82;;;4.07;;
49296;SDS011;35163;48.878;18.040;2022-10-04T01:41:22;12.45;;;3.97;;
49296;SDS011;35163;48.878;18.040;2022-10-04T01:43:56;18.73;;;4.85;;
49296;SDS011;35163;48.878;18.040;2022-10-04T01:46:27;10.10;;;4.00;;
49296;SDS011;35163;48.878;18.040;2022-10-04T01:49:02;8.70;;;3.95;;
49296;SDS011;35163;48.878;18.040;2022-10-04T01:51:41;8.20;;;3.97;;
49296;SDS011;35163;48.878;18.040;2022-10-04T01:54:16;15.90;;;3.88;;
49296;SDS011;35163;48.878;18.040;2022-10-04T01:56:48;10.98;;;3.85;;
49296;SDS011;35163;48.878;18.040;2022-10-04T01:59:21;15.68;;;4.72;;
49296;SDS011;35163;48.878;18.040;2022-10-04T02:04:33;13.32;;;4.15;;
49296;SDS011;35163;48.878;18.040;2022-10-04T02:07:10;11.20;;;4.25;;
49296;SDS011;35163;48.878;18.040;2022-10-04T02:12:09;11.10;;;4.20;;
49296;SDS011;35163;48.878;18.040;2022-10-04T02:14:48;9.32;;;3.78;;
49296;SDS011;35163;48.878;18.040;2022-10-04T02:17:22;9.80;;;3.83;;
49296;SDS011;35163;48.878;18.040;2022-10-04T02:19:53;9.95;;;4.00;;
49296;SDS011;35163;48.878;18.040;2022-10-04T02:22:22;10.98;;;3.67;;
49296;SDS011;35163;48.878;18.040;2022-10-04T02:24:51;10.18;;;3.85;;
49296;SDS011;35163;48.878;18.040;2022-10-04T02:27:24;8.30;;;3.60;;
49296;SDS011;35163;48.878;18.040;2022-10-04T02:29:58;13.82;;;4.15;;
49296;SDS011;35163;48.878;18.040;2022-10-04T02:32:33;12.13;;;3.75;;
49296;SDS011;35163;48.878;18.040;2022-10-04T02:35:19;9.50;;;4.20;;
49296;SDS011;35163;48.878;18.040;2022-10-04T02:37:54;10.52;;;4.18;;
49296;SDS011;35163;48.878;18.040;2022-10-04T02:40:31;9.57;;;3.78;;
49296;SDS011;35163;48.878;18.040;2022-10-04T02:43:08;9.05;;;2.97;;
49296;SDS011;35163;48.878;18.040;2022-10-04T02:51:10;8.95;;;3.67;;
49296;SDS011;35163;48.878;18.040;2022-10-04T02:53:54;11.23;;;4.15;;
49296;SDS011;35163;48.878;18.040;2022-10-04T02:56:29;10.75;;;3.42;;
49296;SDS011;35163;48.878;18.040;2022-10-04T02:59:01;8.95;;;3.40;;
49296;SDS011;35163;48.878;18.040;2022-10-04T03:01:40;14.70;;;4.15;;
49296;SDS011;35163;48.878;18.040;2022-10-04T03:06:42;8.75;;;3.70;;
49296;SDS011;35163;48.878;18.040;2022-10-04T03:09:11;11.50;;;3.60;;
49296;SDS011;35163;48.878;18.040;2022-10-04T03:11:39;10.13;;;3.38;;
49296;SDS011;35163;48.878;18.040;2022-10-04T03:14:21;10.43;;;4.35;;
49296;SDS011;35163;48.878;18.040;2022-10-04T03:16:51;17.55;;;4.25;;
49296;SDS011;35163;48.878;18.040;2022-10-04T03:19:21;7.60;;;3.28;;
49296;SDS011;35163;48.878;18.040;2022-10-04T03:21:50;10.23;;;3.60;;
49296;SDS011;35163;48.878;18.040;2022-10-04T03:24:20;11.43;;;3.83;;
49296;SDS011;35163;48.878;18.040;2022-10-04T03:26:51;11.88;;;3.78;;
49296;SDS011;35163;48.878;18.040;2022-10-04T03:29:22;10.30;;;4.30;;
49296;SDS011;35163;48.878;18.040;2022-10-04T03:31:50;9.10;;;3.50;;
49296;SDS011;35163;48.878;18.040;2022-10-04T03:34:35;9.65;;;4.25;;
49296;SDS011;35163;48.878;18.040;2022-10-04T03:37:09;8.57;;;3.60;;
49296;SDS011;35163;48.878;18.040;2022-10-04T03:39:48;7.25;;;3.22;;
49296;SDS011;35163;48.878;18.040;2022-10-04T03:42:18;6.20;;;3.25;;
49296;SDS011;35163;48.878;18.040;2022-10-04T03:44:49;10.27;;;4.00;;
49296;SDS011;35163;48.878;18.040;2022-10-04T03:47:21;11.60;;;3.65;;
49296;SDS011;35163;48.878;18.040;2022-10-04T03:49:53;9.30;;;3.53;;
49296;SDS011;35163;48.878;18.040;2022-10-04T03:52:24;14.88;;;7.55;;
49296;SDS011;35163;48.878;18.040;2022-10-04T03:54:55;8.18;;;4.05;;
49296;SDS011;35163;48.878;18.040;2022-10-04T03:57:25;7.78;;;3.28;;
49296;SDS011;35163;48.878;18.040;2022-10-04T03:59:52;9.45;;;3.70;;
49296;SDS011;35163;48.878;18.040;2022-10-04T04:07:46;11.43;;;3.75;;
49296;SDS011;35163;48.878;18.040;2022-10-04T04:10:24;10.82;;;4.15;;
49296;SDS011;35163;48.878;18.040;2022-10-04T04:15:36;9.40;;;2.92;;
49296;SDS011;35163;48.878;18.040;2022-10-04T04:18:05;11.32;;;3.70;;
49296;SDS011;35163;48.878;18.040;2022-10-04T04:20:40;9.63;;;3.90;;
49296;SDS011;35163;48.878;18.040;2022-10-04T04:23:18;8.70;;;3.55;;
49296;SDS011;35163;48.878;18.040;2022-10-04T04:25:52;8.57;;;3.70;;
49296;SDS011;35163;48.878;18.040;2022-10-04T04:28:33;8.60;;;3.45;;
49296;SDS011;35163;48.878;18.040;2022-10-04T04:31:08;9.55;;;4.10;;
49296;SDS011;35163;48.878;18.040;2022-10-04T04:33:59;11.15;;;3.50;;
49296;SDS011;35163;48.878;18.040;2022-10-04T04:36:28;8.52;;;3.78;;
49296;SDS011;35163;48.878;18.040;2022-10-04T04:39:07;6.90;;;3.58;;
49296;SDS011;35163;48.878;18.040;2022-10-04T04:41:58;11.70;;;4.25;;
49296;SDS011;35163;48.878;18.040;2022-10-04T04:44:27;7.22;;;3.67;;
49296;SDS011;35163;48.878;18.040;2022-10-04T04:46:54;6.88;;;3.40;;
49296;SDS011;35163;48.878;18.040;2022-10-04T04:49:28;11.35;;;4.20;;
49296;SDS011;35163;48.878;18.040;2022-10-04T04:51:56;10.73;;;4.43;;
49296;SDS011;35163;48.878;18.040;2022-10-04T04:54:24;10.15;;;4.25;;
49296;SDS011;35163;48.878;18.040;2022-10-04T04:56:52;12.10;;;4.30;;
49296;SDS011;35163;48.878;18.040;2022-10-04T04:59:21;10.00;;;3.70;;
49296;SDS011;35163;48.878;18.040;2022-10-04T05:01:49;7.88;;;4.00;;
49296;SDS011;35163;48.878;18.040;2022-10-04T05:04:17;9.48;;;4.45;;
49296;SDS011;35163;48.878;18.040;2022-10-04T05:07:02;9.88;;;3.80;;
49296;SDS011;35163;48.878;18.040;2022-10-04T05:09:40;9.70;;;3.95;;
49296;SDS011;35163;48.878;18.040;2022-10-04T05:12:09;9.20;;;4.43;;
49296;SDS011;35163;48.878;18.040;2022-10-04T05:14:46;7.63;;;3.90;;
49296;SDS011;35163;48.878;18.040;2022-10-04T05:17:18;7.93;;;3.70;;
49296;SDS011;35163;48.878;18.040;2022-10-04T05:19:48;11.65;;;3.90;;
49296;SDS011;35163;48.878;18.040;2022-10-04T05:22:16;8.75;;;4.15;;
49296;SDS011;35163;48.878;18.040;2022-10-04T05:24:49;10.75;;;4.07;;
49296;SDS011;35163;48.878;18.040;2022-10-04T05:27:23;10.43;;;4.55;;
49296;SDS011;35163;48.878;18.040;2022-10-04T05:33:05;8.27;;;4.03;;
49296;SDS011;35163;48.878;18.040;2022-10-04T05:35:50;11.02;;;3.80;;
49296;SDS011;35163;48.878;18.040;2022-10-04T05:43:28;12.07;;;4.10;;
49296;SDS011;35163;48.878;18.040;2022-10-04T05:48:46;11.27;;;3.72;;
49296;SDS011;35163;48.878;18.040;2022-10-04T05:51:18;7.78;;;3.83;;
49296;SDS011;35163;48.878;18.040;2022-10-04T05:53:50;12.38;;;3.75;;
49296;SDS011;35163;48.878;18.040;2022-10-04T05:59:13;7.32;;;3.70;;
49296;SDS011;35163;48.878;18.040;2022-10-04T06:04:39;13.05;;;4.57;;
49296;SDS011;35163;48.878;18.040;2022-10-04T06:17:48;9.75;;;4.68;;
49296;SDS011;35163;48.878;18.040;2022-10-04T06:23:18;8.50;;;3.75;;
49296;SDS011;35163;48.878;18.040;2022-10-04T06:25:48;9.68;;;3.80;;
49296;SDS011;35163;48.878;18.040;2022-10-04T06:28:23;7.70;;;3.75;;
49296;SDS011;35163;48.878;18.040;2022-10-04T07:02:19;8.32;;;3.50;;
49296;SDS011;35163;48.878;18.040;2022-10-04T07:07:34;8.60;;;3.72;;
49296;SDS011;35163;48.878;18.040;2022-10-04T07:13:05;9.40;;;3.72;;
49296;SDS011;35163;48.878;18.040;2022-10-04T07:15:47;7.15;;;3.20;;
49296;SDS011;35163;48.878;18.040;2022-10-04T07:18:25;7.85;;;3.03;;
49296;SDS011;35163;48.878;18.040;2022-10-04T07:21:04;8.80;;;3.03;;
49296;SDS011;35163;48.878;18.040;2022-10-04T07:23:57;5.95;;;3.35;;
49296;SDS011;35163;48.878;18.040;2022-10-04T07:26:35;6.95;;;2.65;;
49296;SDS011;35163;48.878;18.040;2022-10-04T07:29:23;6.68;;;2.55;;
49296;SDS011;35163;48.878;18.040;2022-10-04T07:34:35;10.10;;;3.00;;
49296;SDS011;35163;48.878;18.040;2022-10-04T07:37:18;6.15;;;3.40;;
49296;SDS011;35163;48.878;18.040;2022-10-04T07:39:49;9.55;;;3.05;;
49296;SDS011;35163;48.878;18.040;2022-10-04T07:42:32;7.03;;;3.10;;
49296;SDS011;35163;48.878;18.040;2022-10-04T07:45:12;7.30;;;2.95;;
49296;SDS011;35163;48.878;18.040;2022-10-04T07:50:17;8.07;;;3.03;;
49296;SDS011;35163;48.878;18.040;2022-10-04T07:55:20;7.93;;;3.13;;
49296;SDS011;35163;48.878;18.040;2022-10-04T08:00:59;8.85;;;3.03;;
49296;SDS011;35163;48.878;18.040;2022-10-04T08:06:34;6.95;;;3.80;;
49296;SDS011;35163;48.878;18.040;2022-10-04T08:09:15;11.75;;;3.20;;
49296;SDS011;35163;48.878;18.040;2022-10-04T08:12:13;12.57;;;3.53;;
49296;SDS011;35163;48.878;18.040;2022-10-04T08:14:55;8.18;;;3.15;;
49296;SDS011;35163;48.878;18.040;2022-10-04T08:17:46;7.00;;;3.22;;
49296;SDS011;35163;48.878;18.040;2022-10-04T08:26:27;8.75;;;3.92;;
49296;SDS011;35163;48.878;18.040;2022-10-04T08:46:39;14.68;;;3.78;;
49296;SDS011;35163;48.878;18.040;2022-10-04T08:54:43;5.82;;;2.47;;
49296;SDS011;35163;48.878;18.040;2022-10-04T09:03:35;5.78;;;2.38;;
49296;SDS011;35163;48.878;18.040;2022-10-04T09:18:01;12.57;;;3.45;;
49296;SDS011;35163;48.878;18.040;2022-10-04T09:31:35;6.38;;;2.40;;
49296;SDS011;35163;48.878;18.040;2022-10-04T09:35:19;16.17;;;7.03;;
49296;SDS011;35163;48.878;18.040;2022-10-04T10:00:07;7.22;;;2.10;;
49296;SDS011;35163;48.878;18.040;2022-10-04T10:08:12;6.88;;;2.47;;
49296;SDS011;35163;48.878;18.040;2022-10-04T10:16:27;7.93;;;2.60;;
49296;SDS011;35163;48.878;18.040;2022-10-04T10:27:59;4.50;;;2.10;;
49296;SDS011;35163;48.878;18.040;2022-10-04T10:30:30;5.70;;;2.15;;
49296;SDS011;35163;48.878;18.040;2022-10-04T10:36:05;8.18;;;2.60;;
49296;SDS011;35163;48.878;18.040;2022-10-04T10:38:45;6.88;;;2.47;;
49296;SDS011;35163;48.878;18.040;2022-10-04T10:44:32;4.60;;;1.55;;
49296;SDS011;35163;48.878;18.040;2022-10-04T10:50:13;6.63;;;1.83;;
49296;SDS011;35163;48.878;18.040;2022-10-04T11:07:19;8.73;;;1.80;;
49296;SDS011;35163;48.878;18.040;2022-10-04T11:15:42;3.38;;;1.40;;
49296;SDS011;35163;48.878;18.040;2022-10-04T11:42:28;7.57;;;1.65;;
49296;SDS011;35163;48.878;18.040;2022-10-04T11:51:09;8.00;;;2.00;;
49296;SDS011;35163;48.878;18.040;2022-10-04T11:59:45;4.90;;;1.45;;
49296;SDS011;35163;48.878;18.040;2022-10-04T12:05:00;5.50;;;1.50;;
49296;SDS011;35163;48.878;18.040;2022-10-04T12:20:58;7.82;;;1.95;;
49296;SDS011;35163;48.878;18.040;2022-10-04T12:38:05;9.07;;;1.45;;
49296;SDS011;35163;48.878;18.040;2022-10-04T12:43:12;6.90;;;1.80;;
49296;SDS011;35163;48.878;18.040;2022-10-04T13:00:17;4.57;;;1.20;;
49296;SDS011;35163;48.878;18.040;2022-10-04T13:30:53;2.70;;;0.98;;
49296;SDS011;35163;48.878;18.040;2022-10-04T13:33:42;5.38;;;1.10;;
49296;SDS011;35163;48.878;18.040;2022-10-04T13:36:18;4.45;;;1.23;;
49296;SDS011;35163;48.878;18.040;2022-10-04T13:39:05;5.32;;;1.25;;
49296;SDS011;35163;48.878;18.040;2022-10-04T14:07:28;4.38;;;1.27;;
49296;SDS011;35163;48.878;18.040;2022-10-04T14:10:00;6.15;;;1.38;;
49296;SDS011;35163;48.878;18.040;2022-10-04T14:43:21;5.35;;;1.65;;
49296;SDS011;35163;48.878;18.040;2022-10-04T14:46:22;9.63;;;1.95;;
49296;SDS011;35163;48.878;18.040;2022-10-04T15:03:16;11.60;;;1.73;;
49296;SDS011;35163;48.878;18.040;2022-10-04T15:06:01;4.75;;;1.77;;
49296;SDS011;35163;48.878;18.040;2022-10-04T15:08:45;8.20;;;1.67;;
49296;SDS011;35163;48.878;18.040;2022-10-04T15:11:41;7.93;;;1.80;;
49296;SDS011;35163;48.878;18.040;2022-10-04T15:14:40;3.42;;;1.33;;
49296;SDS011;35163;48.878;18.040;2022-10-04T15:17:29;3.92;;;1.40;;
49296;SDS011;35163;48.878;18.040;2022-10-04T15:20:05;5.55;;;1.70;;
49296;SDS011;35163;48.878;18.040;2022-10-04T15:22:46;7.43;;;1.77;;
49296;SDS011;35163;48.878;18.040;2022-10-04T15:34:25;6.50;;;2.00;;
49296;SDS011;35163;48.878;18.040;2022-10-04T15:37:22;5.25;;;1.92;;
49296;SDS011;35163;48.878;18.040;2022-10-04T15:40:14;6.70;;;2.42;;
49296;SDS011;35163;48.878;18.040;2022-10-04T15:45:59;12.02;;;2.42;;
49296;SDS011;35163;48.878;18.040;2022-10-04T15:51:41;10.77;;;2.33;;
49296;SDS011;35163;48.878;18.040;2022-10-04T15:57:28;8.55;;;2.50;;
49296;SDS011;35163;48.878;18.040;2022-10-04T16:00:03;5.28;;;2.17;;
49296;SDS011;35163;48.878;18.040;2022-10-04T16:22:12;9.75;;;2.40;;
49296;SDS011;35163;48.878;18.040;2022-10-04T16:24:43;7.95;;;2.72;;
49296;SDS011;35163;48.878;18.040;2022-10-04T16:27:18;7.57;;;2.80;;
49296;SDS011;35163;48.878;18.040;2022-10-04T16:30:10;6.30;;;2.47;;
49296;SDS011;35163;48.878;18.040;2022-10-04T16:35:40;11.30;;;3.08;;
49296;SDS011;35163;48.878;18.040;2022-10-04T17:05:20;11.13;;;3.63;;
49296;SDS011;35163;48.878;18.040;2022-10-04T17:13:20;7.00;;;3.13;;
49296;SDS011;35163;48.878;18.040;2022-10-04T17:16:03;8.60;;;3.83;;
49296;SDS011;35163;48.878;18.040;2022-10-04T17:18:46;12.55;;;4.93;;
49296;SDS011;35163;48.878;18.040;2022-10-04T17:27:13;12.25;;;4.57;;
49296;SDS011;35163;48.878;18.040;2022-10-04T17:38:18;9.07;;;3.92;;
49296;SDS011;35163;48.878;18.040;2022-10-04T17:43:33;14.75;;;4.53;;
49296;SDS011;35163;48.878;18.040;2022-10-04T17:46:17;11.98;;;4.22;;
49296;SDS011;35163;48.878;18.040;2022-10-04T17:48:47;9.55;;;4.53;;
49296;SDS011;35163;48.878;18.040;2022-10-04T17:57:24;11.70;;;5.03;;
49296;SDS011;35163;48.878;18.040;2022-10-04T18:05:32;13.75;;;4.72;;
49296;SDS011;35163;48.878;18.040;2022-10-04T18:11:01;11.55;;;5.00;;
49296;SDS011;35163;48.878;18.040;2022-10-04T18:18:56;10.07;;;4.07;;
49296;SDS011;35163;48.878;18.040;2022-10-04T18:21:48;10.65;;;4.18;;
49296;SDS011;35163;48.878;18.040;2022-10-04T18:24:19;10.98;;;3.50;;
49296;SDS011;35163;48.878;18.040;2022-10-04T18:26:59;9.60;;;3.90;;
49296;SDS011;35163;48.878;18.040;2022-10-04T18:29:34;9.90;;;4.70;;
49296;SDS011;35163;48.878;18.040;2022-10-04T18:32:14;18.93;;;5.67;;
49296;SDS011;35163;48.878;18.040;2022-10-04T18:34:54;14.05;;;6.65;;
49296;SDS011;35163;48.878;18.040;2022-10-04T18:37:32;11.15;;;5.93;;
49296;SDS011;35163;48.878;18.040;2022-10-04T18:40:52;13.93;;;5.88;;
49296;SDS011;35163;48.878;18.040;2022-10-04T18:43:23;17.67;;;8.00;;
49296;SDS011;35163;48.878;18.040;2022-10-04T18:46:02;13.50;;;7.00;;
49296;SDS011;35163;48.878;18.040;2022-10-04T18:54:06;14.80;;;5.82;;
49296;SDS011;35163;48.878;18.040;2022-10-04T19:02:52;14.85;;;7.00;;
49296;SDS011;35163;48.878;18.040;2022-10-04T19:05:37;15.20;;;6.65;;
49296;SDS011;35163;48.878;18.040;2022-10-04T19:10:57;13.82;;;6.68;;
49296;SDS011;35163;48.878;18.040;2022-10-04T19:24:40;16.25;;;7.53;;
49296;SDS011;35163;48.878;18.040;2022-10-04T19:27:56;17.27;;;8.40;;
49296;SDS011;35163;48.878;18.040;2022-10-04T19:30:38;17.27;;;7.85;;
49296;SDS011;35163;48.878;18.040;2022-10-04T19:33:11;18.17;;;8.23;;
49296;SDS011;35163;48.878;18.040;2022-10-04T19:53:35;16.83;;;7.05;;
49296;SDS011;35163;48.878;18.040;2022-10-04T19:56:17;16.17;;;6.87;;
49296;SDS011;35163;48.878;18.040;2022-10-04T20:01:46;15.88;;;7.03;;
49296;SDS011;35163;48.878;18.040;2022-10-04T20:04:15;13.00;;;5.82;;
49296;SDS011;35163;48.878;18.040;2022-10-04T20:07:01;13.00;;;6.68;;
49296;SDS011;35163;48.878;18.040;2022-10-04T20:12:03;15.05;;;6.05;;
49296;SDS011;35163;48.878;18.040;2022-10-04T20:21:52;13.90;;;6.10;;
49296;SDS011;35163;48.878;18.040;2022-10-04T20:24:47;14.13;;;5.80;;
49296;SDS011;35163;48.878;18.040;2022-10-04T20:34:56;21.55;;;6.45;;
49296;SDS011;35163;48.878;18.040;2022-10-04T20:45:43;30.40;;;8.65;;
49296;SDS011;35163;48.878;18.040;2022-10-04T20:48:21;20.35;;;8.20;;
49296;SDS011;35163;48.878;18.040;2022-10-04T20:50:49;17.98;;;8.60;;
49296;SDS011;35163;48.878;18.040;2022-10-04T20:53:24;19.42;;;8.00;;
49296;SDS011;35163;48.878;18.040;2022-10-04T20:58:37;19.33;;;7.45;;
49296;SDS011;35163;48.878;18.040;2022-10-04T21:04:10;18.80;;;8.00;;
49296;SDS011;35163;48.878;18.040;2022-10-04T21:06:58;21.27;;;8.50;;
49296;SDS011;35163;48.878;18.040;2022-10-04T21:09:25;20.08;;;8.95;;
49296;SDS011;35163;48.878;18.040;2022-10-04T21:11:53;20.45;;;8.63;;
49296;SDS011;35163;48.878;18.040;2022-10-04T21:14:34;22.98;;;10.15;;
49296;SDS011;35163;48.878;18.040;2022-10-04T21:17:04;22.80;;;8.60;;
49296;SDS011;35163;48.878;18.040;2022-10-04T21:19:54;22.23;;;9.23;;
49296;SDS011;35163;48.878;18.040;2022-10-04T21:24:57;22.48;;;11.35;;
49296;SDS011;35163;48.878;18.040;2022-10-04T21:27:33;23.30;;;10.80;;
49296;SDS011;35163;48.878;18.040;2022-10-04T21:30:11;20.65;;;10.80;;
49296;SDS011;35163;48.878;18.040;2022-10-04T21:32:39;24.40;;;12.07;;
49296;SDS011;35163;48.878;18.040;2022-10-04T21:35:06;29.92;;;12.18;;
49296;SDS011;35163;48.878;18.040;2022-10-04T21:37:34;26.10;;;11.57;;
49296;SDS011;35163;48.878;18.040;2022-10-04T21:40:01;23.40;;;11.13;;
49296;SDS011;35163;48.878;18.040;2022-10-04T21:42:28;26.30;;;12.02;;
49296;SDS011;35163;48.878;18.040;2022-10-04T21:44:55;24.42;;;11.10;;
49296;SDS011;35163;48.878;18.040;2022-10-04T21:47:21;22.88;;;10.93;;
49296;SDS011;35163;48.878;18.040;2022-10-04T21:49:48;23.05;;;11.10;;
49296;SDS011;35163;48.878;18.040;2022-10-04T21:52:17;22.10;;;10.50;;
49296;SDS011;35163;48.878;18.040;2022-10-04T21:54:43;31.17;;;11.32;;
49296;SDS011;35163;48.878;18.040;2022-10-04T21:57:11;20.73;;;9.98;;
49296;SDS011;35163;48.878;18.040;2022-10-04T21:59:38;19.80;;;9.95;;
49296;SDS011;35163;48.878;18.040;2022-10-04T22:02:04;19.48;;;9.40;;
49296;SDS011;35163;48.878;18.040;2022-10-04T22:04:33;21.33;;;10.52;;
49296;SDS011;35163;48.878;18.040;2022-10-04T22:06:59;22.90;;;11.68;;
49296;SDS011;35163;48.878;18.040;2022-10-04T22:09:26;27.92;;;11.25;;
49296;SDS011;35163;48.878;18.040;2022-10-04T22:11:53;24.92;;;11.27;;
49296;SDS011;35163;48.878;18.040;2022-10-04T22:14:19;27.90;;;12.02;;
49296;SDS011;35163;48.878;18.040;2022-10-04T22:16:46;20.25;;;10.45;;
49296;SDS011;35163;48.878;18.040;2022-10-04T22:19:13;26.08;;;11.57;;
49296;SDS011;35163;48.878;18.040;2022-10-04T22:21:39;22.25;;;10.20;;
49296;SDS011;35163;48.878;18.040;2022-10-04T22:24:10;26.23;;;11.50;;
49296;SDS011;35163;48.878;18.040;2022-10-04T22:26:42;24.50;;;11.35;;
49296;SDS011;35163;48.878;18.040;2022-10-04T22:29:13;28.38;;;13.43;;
49296;SDS011;35163;48.878;18.040;2022-10-04T22:31:43;33.88;;;13.38;;
49296;SDS011;35163;48.878;18.040;2022-10-04T22:34:15;30.33;;;11.50;;
49296;SDS011;35163;48.878;18.040;2022-10-04T22:36:44;27.88;;;13.05;;
49296;SDS011;35163;48.878;18.040;2022-10-04T22:39:14;27.17;;;13.00;;
49296;SDS011;35163;48.878;18.040;2022-10-04T22:41:47;22.38;;;13.05;;
49296;SDS011;35163;48.878;18.040;2022-10-04T22:44:19;28.10;;;13.18;;
49296;SDS011;35163;48.878;18.040;2022-10-04T22:46:51;21.98;;;12.10;;
49296;SDS011;35163;48.878;18.040;2022-10-04T22:49:20;26.00;;;12.20;;
49296;SDS011;35163;48.878;18.040;2022-10-04T22:51:50;28.92;;;12.27;;
49296;SDS011;35163;48.878;18.040;2022-10-04T22:54:19;27.00;;;11.63;;
49296;SDS011;35163;48.878;18.040;2022-10-04T22:56:49;35.85;;;12.80;;
49296;SDS011;35163;48.878;18.040;2022-10-04T22:59:17;22.60;;;10.55;;
49296;SDS011;35163;48.878;18.040;2022-10-04T23:01:46;27.08;;;12.25;;
49296;SDS011;35163;48.878;18.040;2022-10-04T23:04:20;24.02;;;13.10;;
49296;SDS011;35163;48.878;18.040;2022-10-04T23:06:49;26.00;;;13.27;;
49296;SDS011;35163;48.878;18.040;2022-10-04T23:09:16;29.20;;;13.40;;
49296;SDS011;35163;48.878;18.040;2022-10-04T23:11:43;28.55;;;13.65;;
49296;SDS011;35163;48.878;18.040;2022-10-04T23:14:10;26.55;;;12.27;;
49296;SDS011;35163;48.878;18.040;2022-10-04T23:16:37;25.60;;;12.07;;
49296;SDS011;35163;48.878;18.040;2022-10-04T23:19:10;25.15;;;12.82;;
49296;SDS011;35163;48.878;18.040;2022-10-04T23:21:39;24.52;;;12.35;;
49296;SDS011;35163;48.878;18.040;2022-10-04T23:26:46;29.52;;;14.60;;
49296;SDS011;35163;48.878;18.040;2022-10-04T23:29:25;30.35;;;12.90;;
49296;SDS011;35163;48.878;18.040;2022-10-04T23:31:55;27.25;;;14.73;;
49296;SDS011;35163;48.878;18.040;2022-10-04T23:34:26;29.15;;;13.15;;
49296;SDS011;35163;48.878;18.040;2022-10-04T23:36:58;31.98;;;12.90;;
49296;SDS011;35163;48.878;18.040;2022-10-04T23:39:34;25.88;;;12.35;;
49296;SDS011;35163;48.878;18.040;2022-10-04T23:42:01;26.45;;;12.65;;
49296;SDS011;35163;48.878;18.040;2022-10-04T23:44:38;34.15;;;12.40;;
49296;SDS011;35163;48.878;18.040;2022-10-04T23:47:12;25.38;;;12.32;;
49296;SDS011;35163;48.878;18.040;2022-10-04T23:49:41;26.23;;;11.45;;
49296;SDS011;35163;48.878;18.040;2022-10-04T23:52:09;26.80;;;12.50;;
49296;SDS011;35163;48.878;18.040;2022-10-04T23:54:44;27.33;;;12.90;;
49296;SDS011;35163;48.878;18.040;2022-10-04T23:57:10;25.20;;;12.50;;
49296;SDS011;35163;48.878;18.040;2022-10-04T23:59:46;119.25;;;15.85;;
